Time;durP1;ratioP1;P1;durP2;ratioP2;P2;SDS_P1;SDS_P2;PMS_P1;PMS_P2;Temp;Humidity;BMP_temperature;BMP_pressure;BME280_temperature;BME280_humidity;BME280_pressure;Samples;Min_cycle;Max_cycle;Signal;HPM_P1;HPM_P2
2023/02/26 00:01:16;;;;;;;16.65;6.93;;;;;;;13.69;61.50;99903.72;4999657;28;20064;-90
2023/02/26 00:03:42;;;;;;;17.60;7.05;;;;;;;13.71;61.81;99906.25;4977806;28;20089;-90
2023/02/26 00:06:08;;;;;;;18.95;7.25;;;;;;;13.74;61.89;99903.13;4968872;28;20062;-88
2023/02/26 00:08:36;;;;;;;14.52;7.10;;;;;;;13.50;62.27;99896.34;4997971;28;20021;-88
2023/02/26 00:11:07;;;;;;;17.08;7.30;;;;;;;13.61;62.53;99913.88;4981497;28;20030;-87
2023/02/26 00:13:33;;;;;;;20.60;7.10;;;;;;;13.44;62.45;99875.56;4968194;28;20026;-87
2023/02/26 00:16:03;;;;;;;18.15;6.95;;;;;;;13.62;62.50;99904.75;5009153;28;20032;-90
2023/02/26 00:18:33;;;;;;;22.55;7.85;;;;;;;13.50;62.39;99869.34;4985041;28;20061;-87
2023/02/26 00:21:04;;;;;;;18.15;7.15;;;;;;;13.48;62.88;99876.81;5015988;28;20064;-86
2023/02/26 00:23:32;;;;;;;16.98;7.25;;;;;;;13.55;63.09;99899.28;4994811;28;20039;-88
2023/02/26 00:25:58;;;;;;;22.73;7.63;;;;;;;13.39;64.03;99884.25;4996158;28;20031;-89
2023/02/26 00:28:25;;;;;;;25.38;7.45;;;;;;;13.44;64.11;99886.38;4992399;28;20458;-88
2023/02/26 00:30:51;;;;;;;16.50;7.80;;;;;;;13.44;64.27;99889.06;5005822;28;20068;-87
2023/02/26 00:33:19;;;;;;;21.52;7.05;;;;;;;13.48;64.21;99876.81;4985585;28;20041;-87
2023/02/26 00:35:48;;;;;;;18.90;7.40;;;;;;;13.48;64.30;99888.44;4989843;28;20084;-90
2023/02/26 00:38:18;;;;;;;17.23;6.93;;;;;;;13.54;64.21;99896.81;4996083;28;20505;-89
2023/02/26 00:40:49;;;;;;;19.08;7.43;;;;;;;13.47;64.90;99891.38;4995144;28;20038;-90
2023/02/26 00:43:26;;;;;;;21.60;7.47;;;;;;;13.43;64.86;99898.19;5014840;28;20022;-90
2023/02/26 00:46:19;;;;;;;20.95;7.28;;;;;;;13.35;65.26;99883.00;4980562;28;20188;-91
2023/02/26 00:49:06;;;;;;;21.42;7.47;;;;;;;13.55;64.96;99887.66;4985749;28;20040;-89
2023/02/26 00:51:51;;;;;;;15.73;7.25;;;;;;;13.52;64.99;99880.78;5010795;28;20029;-89
2023/02/26 00:54:30;;;;;;;27.17;8.35;;;;;;;13.46;65.36;99868.06;4975409;28;20117;-88
2023/02/26 00:56:58;;;;;;;16.15;6.95;;;;;;;13.35;65.06;99850.59;4976405;28;20026;-87
2023/02/26 00:59:23;;;;;;;21.67;7.30;;;;;;;13.25;65.46;99841.97;4992993;28;20042;-87
2023/02/26 01:01:49;;;;;;;20.75;7.40;;;;;;;13.48;65.57;99872.25;4967565;28;20054;-86
2023/02/26 01:04:16;;;;;;;22.08;7.50;;;;;;;13.27;65.99;99843.50;4993260;28;20046;-89
2023/02/26 01:06:44;;;;;;;14.68;6.95;;;;;;;13.28;65.86;99849.72;4977247;28;20046;-86
2023/02/26 01:09:34;;;;;;;23.65;7.43;;;;;;;13.51;65.94;99879.16;4987454;28;20045;-89
2023/02/26 01:12:04;;;;;;;22.10;7.47;;;;;;;13.40;66.10;99863.50;4985601;28;20089;-88
2023/02/26 01:14:31;;;;;;;19.73;7.03;;;;;;;13.27;66.44;99848.00;4978077;28;20040;-87
2023/02/26 01:17:26;;;;;;;14.85;7.20;;;;;;;13.50;66.29;99867.47;4984237;28;20089;-87
2023/02/26 01:19:57;;;;;;;20.98;7.30;;;;;;;13.40;66.00;99847.28;5000671;28;20358;-88
2023/02/26 01:22:35;;;;;;;22.63;7.07;;;;;;;13.38;66.61;99860.97;5003832;28;20048;-87
2023/02/26 01:25:24;;;;;;;17.80;6.78;;;;;;;13.41;66.43;99848.94;4976283;28;20136;-88
2023/02/26 01:27:51;;;;;;;24.08;7.53;;;;;;;13.21;66.87;99838.84;4991874;28;20050;-88
2023/02/26 01:30:18;;;;;;;20.98;7.00;;;;;;;13.31;66.18;99833.13;4997733;28;20391;-89
2023/02/26 01:32:52;;;;;;;24.25;7.47;;;;;;;13.25;66.99;99844.66;4990705;28;20039;-86
2023/02/26 01:35:37;;;;;;;17.65;7.47;;;;;;;13.25;66.97;99850.91;4994087;28;20038;-86
2023/02/26 01:38:27;;;;;;;20.70;6.75;;;;;;;13.17;67.45;99848.34;5007502;28;20033;-89
2023/02/26 01:41:34;;;;;;;17.60;6.60;;;;;;;13.17;67.38;99851.06;4982244;28;20052;-86
2023/02/26 01:44:02;;;;;;;16.77;6.95;;;;;;;13.18;67.36;99852.75;5008159;28;20092;-87
2023/02/26 01:47:01;;;;;;;27.08;7.50;;;;;;;13.25;67.13;99856.31;4992501;28;20034;-87
2023/02/26 01:49:27;;;;;;;16.33;6.40;;;;;;;13.23;67.28;99855.69;5011924;28;20105;-84
2023/02/26 01:51:58;;;;;;;24.15;6.50;;;;;;;13.32;66.98;99855.53;4990452;28;20418;-86
2023/02/26 01:54:39;;;;;;;21.40;7.05;;;;;;;13.29;66.80;99863.00;5008663;28;20086;-85
2023/02/26 01:57:07;;;;;;;20.17;6.68;;;;;;;13.16;67.13;99841.31;4996628;28;20899;-90
2023/02/26 01:59:37;;;;;;;15.32;6.68;;;;;;;13.35;66.79;99872.19;4978724;28;20034;-87
2023/02/26 02:02:04;;;;;;;20.58;6.80;;;;;;;13.30;66.85;99872.78;4979965;28;20034;-85
2023/02/26 02:04:33;;;;;;;19.58;6.80;;;;;;;13.21;66.79;99849.66;4977197;28;20055;-86
2023/02/26 02:07:01;;;;;;;16.10;6.43;;;;;;;13.44;66.43;99880.97;4992272;28;20076;-86
2023/02/26 02:09:28;;;;;;;20.23;6.78;;;;;;;13.41;66.48;99865.16;5004405;28;20479;-87
2023/02/26 02:12:05;;;;;;;17.77;6.15;;;;;;;13.41;66.46;99887.56;4974139;28;20136;-88
2023/02/26 02:15:08;;;;;;;20.42;6.55;;;;;;;13.54;66.48;99886.84;5014604;28;20034;-88
2023/02/26 02:18:02;;;;;;;18.80;6.18;;;;;;;13.57;66.26;99891.81;5017276;28;20387;-88
2023/02/26 02:20:49;;;;;;;18.23;6.30;;;;;;;13.54;66.54;99891.41;5026227;28;20069;-87
2023/02/26 02:23:20;;;;;;;17.27;6.22;;;;;;;13.51;66.87;99909.69;5011187;28;20362;-87
2023/02/26 02:26:04;;;;;;;17.67;6.38;;;;;;;13.63;66.34;99901.84;5010343;28;20134;-88
2023/02/26 02:29:03;;;;;;;21.33;6.63;;;;;;;13.55;66.34;99907.41;4989469;28;20026;-87
2023/02/26 02:31:32;;;;;;;21.80;6.78;;;;;;;13.55;66.39;99904.69;5007626;28;20070;-87
2023/02/26 02:34:33;;;;;;;24.15;6.13;;;;;;;13.45;66.68;99907.75;4970647;28;20045;-87
2023/02/26 02:37:23;;;;;;;15.52;5.85;;;;;;;13.42;66.97;99915.44;4984391;28;20038;-86
2023/02/26 02:40:10;;;;;;;25.60;5.95;;;;;;;13.27;66.79;99875.88;5004132;28;20041;-86
2023/02/26 02:42:45;;;;;;;15.88;6.05;;;;;;;13.36;67.13;99900.00;4973374;28;20115;-86
2023/02/26 02:45:18;;;;;;;21.25;7.28;;;;;;;13.25;67.03;99891.41;4969061;28;20030;-88
2023/02/26 02:47:49;;;;;;;18.42;6.32;;;;;;;13.45;66.79;99915.84;4989921;28;20033;-88
2023/02/26 02:50:54;;;;;;;15.90;6.22;;;;;;;13.47;66.59;99904.88;4983409;28;20045;-87
2023/02/26 02:53:25;;;;;;;19.83;5.50;;;;;;;13.46;66.35;99898.63;4958194;28;20189;-88
2023/02/26 02:55:58;;;;;;;20.90;6.35;;;;;;;13.53;66.55;99936.47;4956090;28;20045;-87
2023/02/26 02:58:28;;;;;;;16.45;6.15;;;;;;;13.40;66.63;99928.28;4977828;28;20045;-86
2023/02/26 03:00:56;;;;;;;18.15;6.30;;;;;;;13.45;66.56;99936.63;4975675;28;20181;-87
2023/02/26 03:03:46;;;;;;;15.32;6.05;;;;;;;13.42;66.74;99935.16;4992063;28;20128;-87
2023/02/26 03:06:12;;;;;;;20.35;6.25;;;;;;;13.43;66.97;99941.38;4993109;28;20041;-86
2023/02/26 03:08:40;;;;;;;24.92;5.95;;;;;;;13.44;66.63;99945.78;4992814;28;20022;-87
2023/02/26 03:11:09;;;;;;;16.23;5.82;;;;;;;13.24;66.66;99919.41;4985068;28;20042;-86
2023/02/26 03:13:38;;;;;;;19.85;6.03;;;;;;;13.40;66.71;99949.88;5012834;28;20105;-86
2023/02/26 03:16:16;;;;;;;23.90;6.63;;;;;;;13.39;66.85;99953.59;4983108;28;20049;-87
2023/02/26 03:18:51;;;;;;;18.00;6.10;;;;;;;13.47;66.60;99958.88;5008136;28;20034;-87
2023/02/26 03:21:44;;;;;;;18.58;6.13;;;;;;;13.34;67.03;99953.38;4977907;28;20466;-87
2023/02/26 03:24:20;;;;;;;16.08;5.68;;;;;;;13.33;66.76;99962.50;4973531;28;20347;-86
2023/02/26 03:26:51;;;;;;;20.08;6.10;;;;;;;13.38;66.75;99965.44;5002507;28;20120;-86
2023/02/26 03:29:35;;;;;;;17.15;6.28;;;;;;;13.32;67.23;99969.75;4973764;28;20022;-85
2023/02/26 03:32:13;;;;;;;14.13;5.65;;;;;;;13.38;66.76;99968.97;5001753;28;20032;-86
2023/02/26 03:34:46;;;;;;;16.48;6.10;;;;;;;13.32;66.88;99958.13;4989956;28;20032;-86
2023/02/26 03:37:37;;;;;;;16.60;6.07;;;;;;;13.25;66.79;99953.50;4962129;28;20038;-86
2023/02/26 03:40:06;;;;;;;18.02;5.90;;;;;;;13.21;67.13;99963.00;5002138;28;20030;-86
2023/02/26 03:42:55;;;;;;;23.02;5.93;;;;;;;13.21;67.10;99954.91;4974692;28;20045;-86
2023/02/26 03:45:27;;;;;;;26.02;6.68;;;;;;;13.33;66.91;99968.72;5006817;28;20145;-86
2023/02/26 03:47:53;;;;;;;18.08;6.93;;;;;;;13.26;66.98;99957.03;4990179;28;20046;-87
2023/02/26 03:50:38;;;;;;;;;;;;;;;13.43;66.46;99976.50;4972572;28;20503;-86
2023/02/26 03:53:06;;;;;;;23.33;5.95;;;;;;;13.20;66.73;99961.31;4988485;28;20075;-87
2023/02/26 03:55:46;;;;;;;15.85;5.97;;;;;;;13.33;66.59;99982.22;4958202;28;20413;-88
2023/02/26 03:58:11;;;;;;;21.17;6.25;;;;;;;13.23;66.24;99942.06;5010934;28;20030;-86
2023/02/26 04:00:37;;;;;;;17.52;6.53;;;;;;;13.38;66.09;99962.75;4987759;28;20570;-87
2023/02/26 04:03:25;;;;;;;21.27;5.97;;;;;;;13.49;66.01;99987.34;4976403;28;20045;-88
2023/02/26 04:05:51;;;;;;;15.73;5.75;;;;;;;13.41;65.58;99983.94;4997249;28;20482;-87
2023/02/26 04:08:16;;;;;;;17.40;5.53;;;;;;;13.58;65.38;99993.44;4978435;28;20037;-86
2023/02/26 04:11:16;;;;;;;14.20;5.55;;;;;;;13.58;65.47;99992.59;4994563;28;20033;-85
2023/02/26 04:13:44;;;;;;;16.95;5.80;;;;;;;13.58;65.73;99996.16;4986075;28;20068;-86
2023/02/26 04:16:10;;;;;;;15.35;5.18;;;;;;;13.57;65.43;99999.84;4995613;28;20474;-86
2023/02/26 04:18:37;;;;;;;18.20;6.35;;;;;;;13.57;65.84;99999.03;5010323;28;20037;-87
2023/02/26 04:21:04;;;;;;;15.05;5.47;;;;;;;13.69;65.25;100003.69;4969400;28;20118;-87
2023/02/26 04:23:29;;;;;;;16.35;5.70;;;;;;;13.62;65.54;100001.97;4987921;28;20534;-87
2023/02/26 04:25:55;;;;;;;12.05;4.82;;;;;;;13.49;65.63;99976.53;4975462;28;20072;-88
2023/02/26 04:28:24;;;;;;;22.67;6.07;;;;;;;13.65;65.51;99996.16;4971190;28;20057;-87
2023/02/26 04:30:50;;;;;;;19.40;5.32;;;;;;;13.64;65.31;99984.53;4972853;28;20435;-87
2023/02/26 04:33:17;;;;;;;20.48;5.63;;;;;;;13.65;65.41;99998.88;5008962;28;20018;-88
2023/02/26 04:35:42;;;;;;;18.80;5.22;;;;;;;13.75;65.57;100017.44;4993238;28;20041;-86
2023/02/26 04:38:08;;;;;;;19.33;5.63;;;;;;;13.55;65.50;99982.19;5010961;28;20129;-87
2023/02/26 04:40:35;;;;;;;17.67;5.55;;;;;;;13.56;65.88;99990.09;4991334;28;20116;-86
2023/02/26 04:43:02;;;;;;;19.98;7.18;;;;;;;13.57;65.65;99989.06;5009678;28;20037;-86
2023/02/26 04:45:30;;;;;;;19.02;5.60;;;;;;;13.65;65.68;99997.03;4985884;28;20100;-86
2023/02/26 04:47:59;;;;;;;17.05;5.72;;;;;;;13.66;65.74;100001.38;4986552;28;20370;-87
2023/02/26 04:50:25;;;;;;;19.08;5.47;;;;;;;13.72;65.68;99991.66;4979450;28;20101;-87
2023/02/26 04:52:55;;;;;;;22.83;5.22;;;;;;;13.65;65.79;99986.22;4990833;28;20033;-86
2023/02/26 04:55:22;;;;;;;16.73;5.32;;;;;;;13.86;65.70;100008.78;4971420;28;20459;-87
2023/02/26 04:57:48;;;;;;;16.20;5.85;;;;;;;13.75;65.20;99990.44;4982990;28;20026;-85
2023/02/26 05:00:16;;;;;;;15.73;5.45;;;;;;;13.94;65.16;100001.34;4969886;28;20056;-87
2023/02/26 05:02:44;;;;;;;19.88;5.72;;;;;;;13.74;65.25;99992.28;4979919;28;20042;-86
2023/02/26 05:05:09;;;;;;;15.30;5.50;;;;;;;13.83;65.24;100011.88;5005294;28;20115;-86
2023/02/26 05:07:34;;;;;;;16.70;5.40;;;;;;;13.95;65.03;100040.00;4958938;28;20029;-86
2023/02/26 05:10:05;;;;;;;15.52;5.50;;;;;;;13.89;65.14;100025.44;4970749;28;20039;-84
2023/02/26 05:12:31;;;;;;;22.00;5.35;;;;;;;13.92;65.25;100043.94;4981183;28;20033;-89
2023/02/26 05:15:01;;;;;;;21.65;5.50;;;;;;;13.97;65.11;100048.75;4971444;28;20046;-85
2023/02/26 05:17:27;;;;;;;17.20;5.45;;;;;;;14.02;64.95;100045.47;5014333;28;20041;-87
2023/02/26 05:19:53;;;;;;;20.63;5.85;;;;;;;14.11;64.60;100055.91;4973725;28;20046;-86
2023/02/26 05:22:19;;;;;;;;;;;;;;;14.08;64.99;100063.59;5008084;28;20565;-86
2023/02/26 05:24:45;;;;;;;18.98;5.20;;;;;;;14.06;64.44;100063.78;5010055;28;19971;-86
2023/02/26 05:27:12;;;;;;;14.73;5.10;;;;;;;13.97;64.34;100054.16;4990880;28;20422;-84
2023/02/26 05:29:40;;;;;;;19.08;5.63;;;;;;;14.09;64.15;100067.97;4990874;28;20112;-86
2023/02/26 05:32:06;;;;;;;16.88;5.60;;;;;;;14.06;64.49;100071.91;4961798;28;20402;-86
2023/02/26 05:34:31;;;;;;;17.55;6.65;;;;;;;14.19;64.44;100083.81;5008152;28;20030;-85
2023/02/26 05:36:58;;;;;;;18.02;5.80;;;;;;;14.20;64.33;100091.75;4988874;28;20042;-87
2023/02/26 05:39:24;;;;;;;17.50;5.90;;;;;;;14.07;64.57;100073.59;4989141;28;20034;-87
2023/02/26 05:41:52;;;;;;;15.65;5.50;;;;;;;14.22;64.46;100088.84;4973582;28;20121;-86
2023/02/26 05:44:18;;;;;;;19.20;6.35;;;;;;;13.99;64.66;100079.13;4987299;28;20038;-87
2023/02/26 05:46:44;;;;;;;22.45;6.07;;;;;;;13.99;65.07;100073.72;4999252;28;20059;-86
2023/02/26 05:49:11;;;;;;;20.05;6.82;;;;;;;14.14;64.63;100087.97;4972318;28;20030;-87
2023/02/26 05:51:38;;;;;;;19.13;5.97;;;;;;;14.22;64.46;100099.66;4991018;28;20038;-87
2023/02/26 05:54:04;;;;;;;12.93;5.38;;;;;;;14.20;64.21;100101.72;4974099;28;20038;-86
2023/02/26 05:56:30;;;;;;;20.02;6.15;;;;;;;14.28;64.11;100093.44;4973130;28;20041;-87
2023/02/26 05:58:57;;;;;;;16.92;5.40;;;;;;;14.21;63.86;100082.63;4968838;28;20490;-85
2023/02/26 06:01:23;;;;;;;19.15;6.40;;;;;;;14.27;63.80;100098.03;4989162;28;20367;-86
2023/02/26 06:03:51;;;;;;;24.08;6.20;;;;;;;14.06;63.84;100076.47;5005451;28;20045;-87
2023/02/26 06:06:17;;;;;;;14.35;5.93;;;;;;;14.20;63.79;100089.03;5004559;28;20129;-87
2023/02/26 06:08:46;;;;;;;21.05;6.85;;;;;;;14.29;63.38;100119.47;4970744;28;20045;-86
2023/02/26 06:11:32;;;;;;;20.38;5.72;;;;;;;14.14;63.62;100082.56;4996199;28;20098;-89
2023/02/26 06:13:57;;;;;;;;;;;;;;;14.19;63.81;100100.03;5024719;28;20033;-88
2023/02/26 06:16:23;;;;;;;21.85;5.97;;;;;;;14.13;63.96;100098.97;5000419;28;19956;-87
2023/02/26 06:18:50;;;;;;;20.55;6.00;;;;;;;14.18;63.47;100080.28;4994602;28;20044;-87
2023/02/26 06:21:17;;;;;;;17.65;5.60;;;;;;;14.25;63.56;100100.09;5002243;28;20033;-85
2023/02/26 06:23:42;;;;;;;19.58;5.63;;;;;;;14.29;63.32;100105.94;4970862;28;20029;-87
2023/02/26 06:26:10;;;;;;;25.00;5.80;;;;;;;14.20;63.69;100104.44;5005221;28;20041;-88
2023/02/26 06:28:36;;;;;;;20.33;5.72;;;;;;;14.21;63.55;100097.97;5009021;28;20038;-87
2023/02/26 06:31:02;;;;;;;17.05;5.53;;;;;;;14.14;63.64;100092.53;4962479;28;20034;-87
2023/02/26 06:33:27;;;;;;;21.85;5.70;;;;;;;14.12;63.69;100084.63;4973736;28;20096;-86
2023/02/26 06:35:53;;;;;;;14.07;5.25;;;;;;;14.03;64.18;100085.00;4990253;28;20026;-87
2023/02/26 06:38:19;;;;;;;17.08;5.40;;;;;;;14.12;63.34;100078.41;4988680;28;20080;-83
2023/02/26 06:40:44;;;;;;;;;;;;;;;14.22;63.82;100108.59;4986260;28;20558;-86
2023/02/26 06:43:10;;;;;;;18.48;5.00;;;;;;;14.19;63.70;100121.66;4982477;28;19921;-86
2023/02/26 06:45:38;;;;;;;18.15;5.22;;;;;;;14.09;63.57;100117.47;4992916;28;20058;-86
2023/02/26 06:48:04;;;;;;;18.30;4.88;;;;;;;14.09;63.49;100128.28;4976624;28;20125;-88
2023/02/26 06:50:30;;;;;;;16.40;5.70;;;;;;;14.07;64.02;100146.56;4976492;28;20440;-86
2023/02/26 06:52:56;;;;;;;21.25;5.43;;;;;;;14.13;63.45;100134.94;5007228;28;20364;-86
2023/02/26 06:55:25;;;;;;;16.70;5.20;;;;;;;14.10;63.19;100119.13;4992300;28;20114;-87
2023/02/26 06:57:55;;;;;;;17.13;5.20;;;;;;;14.15;62.88;100116.66;5005690;28;20135;-87
2023/02/26 07:00:24;;;;;;;17.70;4.70;;;;;;;14.34;62.60;100141.34;4976894;28;20092;-86
2023/02/26 07:02:50;;;;;;;15.07;5.38;;;;;;;14.32;62.47;100146.94;4978135;28;20038;-87
2023/02/26 07:05:16;;;;;;;15.30;5.53;;;;;;;14.23;62.66;100140.00;4979376;28;20038;-88
2023/02/26 07:07:42;;;;;;;24.52;5.93;;;;;;;14.29;62.00;100141.94;4997095;28;20457;-87
2023/02/26 07:10:11;;;;;;;16.90;5.63;;;;;;;14.34;62.23;100157.56;5012172;28;20099;-87
2023/02/26 07:12:38;;;;;;;17.00;5.47;;;;;;;14.54;61.58;100163.97;4976605;28;20085;-87
2023/02/26 07:15:08;;;;;;;18.92;5.45;;;;;;;14.47;61.85;100152.25;5000387;28;20062;-87
2023/02/26 07:17:34;;;;;;;18.92;5.95;;;;;;;14.41;61.57;100138.69;4995870;28;20074;-87
2023/02/26 07:20:05;;;;;;;17.25;5.68;;;;;;;14.48;61.69;100145.78;4991647;28;20427;-87
2023/02/26 07:22:32;;;;;;;18.80;7.10;;;;;;;14.48;61.44;100143.09;4992841;28;20034;-87
2023/02/26 07:24:59;;;;;;;20.23;5.60;;;;;;;14.60;61.45;100169.59;4986827;28;20362;-86
2023/02/26 07:27:33;;;;;;;15.07;5.70;;;;;;;14.63;61.26;100161.91;4994438;28;20106;-87
2023/02/26 07:29:59;;;;;;;17.00;5.85;;;;;;;14.59;61.24;100170.66;5010909;28;20033;-87
2023/02/26 07:32:25;;;;;;;19.20;6.60;;;;;;;14.59;61.39;100165.25;4980189;28;20485;-86
2023/02/26 07:34:52;;;;;;;17.67;5.45;;;;;;;14.61;60.84;100163.16;4983681;28;20136;-85
2023/02/26 07:37:18;;;;;;;29.33;6.90;;;;;;;14.71;60.84;100174.47;5009611;28;20069;-88
2023/02/26 07:39:44;;;;;;;25.58;6.20;;;;;;;14.65;60.59;100164.44;4974207;28;20128;-87
2023/02/26 07:42:09;;;;;;;17.52;5.78;;;;;;;14.78;60.42;100159.94;4986139;28;20056;-86
2023/02/26 07:44:35;;;;;;;20.13;5.90;;;;;;;14.80;60.30;100173.28;4992871;28;20030;-87
2023/02/26 07:47:02;;;;;;;;;;;;;;;14.78;60.04;100168.03;4997702;28;20038;-86
2023/02/26 07:49:31;;;;;;;14.73;5.78;;;;;;;14.64;60.64;100176.31;5007189;28;19917;-85
2023/02/26 07:51:57;;;;;;;14.02;4.90;;;;;;;14.73;60.24;100172.41;5020563;28;20923;-86
2023/02/26 07:54:23;;;;;;;22.17;5.57;;;;;;;14.70;60.20;100145.72;4979258;28;20022;-89
2023/02/26 07:56:51;;;;;;;22.20;7.80;;;;;;;14.94;59.50;100174.16;4992835;28;20053;-87
2023/02/26 07:59:17;;;;;;;20.70;7.30;;;;;;;14.79;59.32;100139.09;4980147;28;20088;-87
2023/02/26 08:01:44;;;;;;;18.20;5.75;;;;;;;14.98;59.35;100157.31;4961485;28;20042;-87
2023/02/26 08:04:11;;;;;;;15.10;5.93;;;;;;;14.94;59.28;100153.34;5012540;28;20030;-88
2023/02/26 08:06:38;;;;;;;13.52;5.13;;;;;;;15.05;58.67;100172.75;5012022;28;20041;-86
2023/02/26 08:09:06;;;;;;;21.33;6.45;;;;;;;15.08;58.21;100143.41;4993078;28;20052;-86
2023/02/26 08:11:38;;;;;;;22.70;9.48;;;;;;;15.24;57.83;100154.91;4978071;28;20040;-86
2023/02/26 08:14:11;;;;;;;20.83;5.80;;;;;;;15.44;57.64;100171.22;4993712;28;20018;-86
2023/02/26 08:16:39;;;;;;;17.00;5.65;;;;;;;15.53;56.70;100161.84;5009714;28;20077;-88
2023/02/26 08:19:06;;;;;;;22.60;6.97;;;;;;;15.37;56.81;100158.47;4988472;28;20030;-87
2023/02/26 08:21:32;;;;;;;20.40;6.40;;;;;;;15.73;55.92;100170.91;4993769;28;20025;-87
2023/02/26 08:23:58;;;;;;;23.83;5.72;;;;;;;15.77;55.56;100155.88;4960336;28;20054;-86
2023/02/26 08:26:24;;;;;;;17.88;7.35;;;;;;;15.72;55.27;100144.81;4980240;28;20101;-89
2023/02/26 08:28:49;;;;;;;;;;;;;;;15.86;55.15;100161.09;4975569;28;20375;-87
2023/02/26 08:31:18;;;;;;;17.10;5.43;;;;;;;15.73;55.16;100146.50;5011650;28;20311;-86
2023/02/26 08:33:43;;;;;;;17.65;5.38;;;;;;;15.88;54.43;100129.19;4978727;28;20379;-87
2023/02/26 08:36:14;;;;;;;19.63;5.70;;;;;;;16.09;54.15;100153.38;4992640;28;20042;-89
2023/02/26 08:38:39;;;;;;;25.15;5.90;;;;;;;16.21;53.79;100140.84;4994409;28;20501;-87
2023/02/26 08:41:13;;;;;;;;;;;;;;;16.45;53.22;100155.63;4961459;28;20053;-89
2023/02/26 08:43:38;;;;;;;17.25;6.93;;;;;;;16.43;52.78;100129.75;5014746;28;19917;-87
2023/02/26 08:46:04;;;;;;;;;;;;;;;16.45;52.47;100152.06;4994172;28;20061;-86
2023/02/26 08:48:30;;;;;;;;;;;;;;;16.66;52.19;100140.94;5020085;28;19943;-87
2023/02/26 08:50:58;;;;;;;18.85;6.10;;;;;;;16.70;51.34;100130.50;4993632;28;19924;-87
2023/02/26 08:53:25;;;;;;;16.92;5.30;;;;;;;16.93;51.21;100130.06;4994365;28;20485;-87
2023/02/26 08:55:51;;;;;;;17.73;6.20;;;;;;;16.76;51.11;100121.50;4964624;28;20113;-86
2023/02/26 08:58:21;;;;;;;18.92;5.25;;;;;;;16.99;50.41;100118.31;4970669;28;20045;-87
2023/02/26 09:00:47;;;;;;;16.35;4.55;;;;;;;17.13;50.29;100115.53;5005331;28;20107;-87
2023/02/26 09:03:12;;;;;;;;;;;;;;;17.48;49.34;100133.06;4985759;28;20033;-82
2023/02/26 09:05:41;;;;;;;19.58;4.78;;;;;;;17.47;48.94;100111.56;4998633;28;19944;-88
2023/02/26 09:08:07;;;;;;;14.55;5.63;;;;;;;17.88;48.20;100124.66;4996066;28;20123;-87
2023/02/26 09:10:34;;;;;;;18.98;5.50;;;;;;;18.02;47.84;100140.88;4979206;28;20113;-86
2023/02/26 09:13:02;;;;;;;15.80;4.85;;;;;;;18.09;47.58;100128.03;5017436;28;20113;-85
2023/02/26 09:15:32;;;;;;;14.63;4.40;;;;;;;18.17;47.50;100126.91;5017721;28;20026;-84
2023/02/26 09:17:59;;;;;;;15.02;4.43;;;;;;;18.56;46.55;100123.78;4992325;28;20041;-86
2023/02/26 09:20:29;;;;;;;14.50;4.65;;;;;;;18.50;46.50;100121.97;4984804;28;20066;-87
2023/02/26 09:22:56;;;;;;;22.00;4.78;;;;;;;18.52;46.53;100121.75;5010446;28;20453;-87
2023/02/26 09:25:22;;;;;;;17.67;4.47;;;;;;;18.77;46.03;100135.31;4990319;28;20081;-87
2023/02/26 09:27:52;;;;;;;18.02;4.80;;;;;;;18.63;46.34;100128.31;4959725;28;20074;-88
2023/02/26 09:30:17;;;;;;;16.88;4.55;;;;;;;18.97;45.66;100140.53;4971535;28;20051;-89
2023/02/26 09:32:43;;;;;;;;;;;;;;;18.48;46.66;100137.69;4973646;28;20096;-88
2023/02/26 09:35:10;;;;;;;12.43;4.18;;;;;;;18.58;46.67;100133.63;5008207;28;19914;-88
2023/02/26 09:37:38;;;;;;;16.42;5.22;;;;;;;19.01;45.80;100128.13;4980425;28;20476;-88
2023/02/26 09:40:06;;;;;;;18.88;4.55;;;;;;;19.35;45.26;100148.41;4978082;28;20044;-89
2023/02/26 09:42:54;;;;;;;15.77;4.85;;;;;;;19.32;45.17;100153.50;4974160;28;20103;-87
2023/02/26 09:45:33;;;;;;;13.43;4.50;;;;;;;19.33;45.15;100155.97;4998773;28;20053;-87
2023/02/26 09:48:02;;;;;;;13.23;4.90;;;;;;;19.51;44.92;100152.38;4995237;28;20046;-86
2023/02/26 09:50:46;;;;;;;21.92;4.20;;;;;;;19.25;44.69;100152.75;4997470;28;20080;-86
2023/02/26 09:53:40;;;;;;;20.80;4.90;;;;;;;19.15;45.68;100154.13;4989138;28;20038;-87
2023/02/26 09:56:24;;;;;;;16.65;4.45;;;;;;;18.94;45.45;100111.00;5006239;28;20105;-87
2023/02/26 09:58:52;;;;;;;15.60;4.33;;;;;;;19.28;45.09;100164.00;4985003;28;20110;-86
2023/02/26 10:01:31;;;;;;;20.83;4.43;;;;;;;19.08;45.39;100149.81;4987524;28;20050;-87
2023/02/26 10:04:20;;;;;;;15.40;4.63;;;;;;;18.89;45.75;100143.56;4976655;28;20046;-87
2023/02/26 10:06:50;;;;;;;19.85;4.35;;;;;;;18.89;45.97;100143.56;5009148;28;20045;-87
2023/02/26 10:09:34;;;;;;;16.70;4.18;;;;;;;18.81;45.36;100117.47;5011482;28;20030;-88
2023/02/26 10:12:19;;;;;;;16.95;3.75;;;;;;;18.76;46.18;100129.03;4999936;28;20034;-87
2023/02/26 10:14:49;;;;;;;17.20;4.10;;;;;;;18.40;47.00;100157.03;4982589;28;20057;-85
2023/02/26 10:17:22;;;;;;;15.77;4.70;;;;;;;18.48;47.14;100136.88;5004843;28;20038;-87
2023/02/26 10:19:55;;;;;;;11.18;4.18;;;;;;;18.33;47.34;100151.69;5009837;28;20141;-86
2023/02/26 10:22:25;;;;;;;12.82;4.30;;;;;;;18.31;47.65;100142.06;4972210;28;20034;-86
